Time;durP1;ratioP1;P1;durP2;ratioP2;P2;SDS_P1;SDS_P2;PMS_P1;PMS_P2;Temp;Humidity;BMP_temperature;BMP_pressure;BME280_temperature;BME280_humidity;BME280_pressure;Samples;Min_cycle;Max_cycle;Signal;HPM_P1;HPM_P2
2022/05/13 00:00:17;;;;;;;1.70;1.40;;;19.20;49.60;;;;;;5026461;28;20211;-86
2022/05/13 00:02:45;;;;;;;2.75;1.40;;;19.10;49.60;;;;;;5043025;28;20187;-86
2022/05/13 00:05:13;;;;;;;4.47;1.58;;;19.10;49.60;;;;;;5042864;28;20645;-86
2022/05/13 00:07:40;;;;;;;1.63;1.45;;;19.10;49.60;;;;;;5042840;28;20191;-86
2022/05/13 00:10:08;;;;;;;1.52;1.30;;;19.20;49.60;;;;;;5026292;28;20189;-86
2022/05/13 00:12:38;;;;;;;2.75;1.40;;;19.10;49.50;;;;;;5042564;28;20216;-86
2022/05/13 00:15:10;;;;;;;1.77;1.63;;;19.10;49.60;;;;;;5042772;28;20286;-86
2022/05/13 00:17:37;;;;;;;1.90;1.35;;;19.10;49.60;;;;;;5026621;28;20269;-86
2022/05/13 00:20:04;;;;;;;2.28;1.50;;;19.20;49.60;;;;;;5042547;28;20669;-86
2022/05/13 00:22:29;;;;;;;2.30;1.40;;;19.10;49.60;;;;;;5060101;28;20192;-86
2022/05/13 00:24:55;;;;;;;1.60;1.50;;;19.10;49.60;;;;;;5043059;28;20168;-87
2022/05/13 00:27:22;;;;;;;3.05;1.60;;;19.10;49.70;;;;;;5043425;28;20199;-86
2022/05/13 00:29:48;;;;;;;1.88;1.45;;;19.10;49.60;;;;;;5059699;28;20159;-86
2022/05/13 00:32:14;;;;;;;1.38;1.27;;;19.10;49.60;;;;;;5059947;28;20196;-86
2022/05/13 00:34:44;;;;;;;1.52;1.42;;;19.10;50.30;;;;;;5059404;28;20173;-86
2022/05/13 00:37:11;;;;;;;2.28;1.48;;;19.10;49.60;;;;;;5042410;28;20185;-86
2022/05/13 00:39:36;;;;;;;1.67;1.30;;;19.10;49.70;;;;;;5059474;28;20171;-86
2022/05/13 00:42:17;;;;;;;2.95;1.52;;;19.10;49.70;;;;;;5076124;28;20240;-86
2022/05/13 00:44:45;;;;;;;1.80;1.67;;;19.10;49.70;;;;;;5026948;28;20212;-86
2022/05/13 00:47:13;;;;;;;2.85;1.30;;;19.00;49.70;;;;;;5059769;28;20179;-86
2022/05/13 00:49:39;;;;;;;2.00;1.50;;;19.10;49.70;;;;;;5075914;28;20179;-86
2022/05/13 00:52:05;;;;;;;1.48;1.30;;;19.10;49.80;;;;;;5093934;28;20643;-86
2022/05/13 00:54:33;;;;;;;1.83;1.60;;;19.10;49.80;;;;;;5059349;28;20333;-87
2022/05/13 00:56:59;;;;;;;1.30;1.20;;;19.10;49.90;;;;;;5075797;28;20153;-86
2022/05/13 00:59:26;;;;;;;1.48;1.13;;;19.10;49.80;;;;;;5076397;28;20164;-86
2022/05/13 01:01:52;;;;;;;2.05;1.38;;;19.10;49.90;;;;;;5059215;28;20149;-86
2022/05/13 01:04:18;;;;;;;1.33;1.23;;;19.10;49.90;;;;;;5094186;28;20164;-86
2022/05/13 01:06:47;;;;;;;1.55;1.40;;;19.00;49.90;;;;;;5059029;28;20160;-86
2022/05/13 01:09:12;;;;;;;1.50;1.40;;;19.10;50.00;;;;;;5059386;28;20157;-86
2022/05/13 01:11:38;;;;;;;1.40;1.30;;;19.00;49.90;;;;;;5094188;28;20188;-86
2022/05/13 01:14:08;;;;;;;2.38;1.20;;;19.10;50.00;;;;;;5043076;28;20161;-86
2022/05/13 01:19:21;;;;;;;1.67;1.35;;;19.10;50.00;;;;;;5049013;28;20181;-86
2022/05/13 01:21:48;;;;;;;1.98;1.02;;;19.00;49.90;;;;;;5041466;28;20185;-86
2022/05/13 01:24:19;;;;;;;3.03;1.30;;;19.00;49.90;;;;;;5042213;28;20180;-86
2022/05/13 01:26:46;;;;;;;1.45;1.35;;;19.00;50.00;;;;;;5041811;28;20640;-86
2022/05/13 01:29:13;;;;;;;1.55;1.40;;;19.00;49.90;;;;;;5024956;28;20195;-86
2022/05/13 01:31:39;;;;;;;1.60;1.40;;;19.00;49.90;;;;;;5024910;28;20608;-87
2022/05/13 01:34:07;;;;;;;1.67;1.42;;;19.00;50.00;;;;;;5042749;28;20185;-87
2022/05/13 01:36:35;;;;;;;1.80;1.50;;;19.00;50.00;;;;;;5059267;28;20218;-87
2022/05/13 01:39:02;;;;;;;1.50;1.40;;;19.00;50.00;;;;;;5042051;28;20161;-87
2022/05/13 01:41:28;;;;;;;1.45;1.30;;;19.00;50.00;;;;;;5055164;28;20307;-87
2022/05/13 01:43:54;;;;;;;3.80;1.38;;;19.00;50.00;;;;;;5038674;28;20636;-87
2022/05/13 01:46:21;;;;;;;1.30;1.20;;;19.00;50.70;;;;;;5038664;28;20169;-87
2022/05/13 01:48:47;;;;;;;1.58;1.48;;;19.00;50.00;;;;;;5039201;28;20161;-87
2022/05/13 01:51:12;;;;;;;1.67;1.52;;;19.00;50.00;;;;;;5055190;28;20612;-87
2022/05/13 01:53:38;;;;;;;1.52;1.42;;;19.00;50.10;;;;;;5038969;28;20197;-86
2022/05/13 01:56:04;;;;;;;2.05;1.25;;;19.00;50.00;;;;;;5038608;28;20176;-87
2022/05/13 01:58:30;;;;;;;1.35;1.15;;;19.00;50.10;;;;;;5055396;28;20191;-87
2022/05/13 02:01:01;;;;;;;2.42;1.40;;;19.00;50.10;;;;;;5038429;28;20161;-87
2022/05/13 02:03:45;;;;;;;1.77;1.35;;;19.00;50.10;;;;;;5038110;28;20188;-87
2022/05/13 02:06:19;;;;;;;1.95;1.30;;;19.00;50.10;;;;;;5027739;28;20185;-87
2022/05/13 02:08:48;;;;;;;1.40;1.30;;;19.00;50.10;;;;;;5072234;28;20256;-86
2022/05/13 02:11:17;;;;;;;1.52;1.30;;;19.00;50.10;;;;;;5021263;28;20242;-87
2022/05/13 02:13:46;;;;;;;1.88;1.38;;;19.00;50.10;;;;;;5021074;28;20217;-87
2022/05/13 02:16:15;;;;;;;1.60;1.30;;;18.90;50.10;;;;;;5037733;28;20193;-87
2022/05/13 02:18:46;;;;;;;2.65;1.30;;;19.00;50.20;;;;;;5038545;28;20578;-87
2022/05/13 02:21:17;;;;;;;1.67;1.20;;;18.90;50.10;;;;;;5041524;28;20189;-87
2022/05/13 02:23:45;;;;;;;1.45;1.35;;;18.90;50.10;;;;;;5025541;28;20184;-87
2022/05/13 02:26:12;;;;;;;1.75;1.65;;;19.00;50.20;;;;;;5041293;28;20243;-87
2022/05/13 02:28:42;;;;;;;1.52;1.40;;;19.00;50.20;;;;;;5041617;28;20189;-87
2022/05/13 02:31:12;;;;;;;1.67;1.30;;;19.00;50.20;;;;;;5041505;28;20731;-87
2022/05/13 02:33:38;;;;;;;1.83;1.30;;;19.00;50.20;;;;;;5041365;28;20221;-87
2022/05/13 02:36:10;;;;;;;2.00;1.10;;;18.90;50.20;;;;;;5058699;28;20163;-87
2022/05/13 02:38:37;;;;;;;3.13;1.40;;;19.00;50.30;;;;;;5025138;28;20180;-87
2022/05/13 02:41:11;;;;;;;2.70;1.55;;;18.90;50.20;;;;;;5021202;28;20287;-87
2022/05/13 02:43:47;;;;;;;1.55;1.25;;;18.90;50.20;;;;;;5039340;28;20173;-87
2022/05/13 02:46:20;;;;;;;1.50;1.40;;;18.90;50.30;;;;;;5005521;28;20235;-87
2022/05/13 02:48:48;;;;;;;1.77;1.30;;;18.90;50.30;;;;;;5022787;28;20182;-86
2022/05/13 02:51:18;;;;;;;1.42;1.33;;;18.90;50.30;;;;;;5021102;28;20189;-87
2022/05/13 02:53:48;;;;;;;1.40;1.30;;;18.90;50.30;;;;;;4988960;28;20213;-87
2022/05/13 02:56:15;;;;;;;1.40;1.20;;;18.90;50.30;;;;;;4988420;28;20186;-87
2022/05/13 02:58:46;;;;;;;1.30;1.20;;;18.90;50.30;;;;;;5004745;28;20239;-87
2022/05/13 03:01:17;;;;;;;1.40;1.30;;;18.90;50.30;;;;;;5004335;28;20189;-87
2022/05/13 03:03:47;;;;;;;1.77;1.50;;;18.90;50.20;;;;;;4988380;28;20209;-87
2022/05/13 03:06:18;;;;;;;1.30;1.20;;;18.90;50.30;;;;;;5020833;28;20266;-87
2022/05/13 03:08:45;;;;;;;1.52;1.17;;;18.90;50.30;;;;;;5004541;28;20186;-87
2022/05/13 03:11:11;;;;;;;1.45;1.35;;;18.90;50.30;;;;;;5037862;28;20616;-87
2022/05/13 03:13:39;;;;;;;1.35;1.25;;;18.90;50.30;;;;;;5037725;28;20182;-86
2022/05/13 03:16:10;;;;;;;1.80;1.40;;;18.90;50.40;;;;;;5020491;28;20535;-86
2022/05/13 03:18:39;;;;;;;3.63;1.40;;;18.90;50.40;;;;;;4988572;28;20178;-86
2022/05/13 03:21:05;;;;;;;1.67;1.30;;;18.90;50.40;;;;;;5020843;28;20209;-86
2022/05/13 03:23:31;;;;;;;1.58;1.42;;;18.90;50.50;;;;;;5037534;28;20247;-86
2022/05/13 03:25:57;;;;;;;1.48;1.30;;;18.80;50.40;;;;;;5021900;28;20636;-87
2022/05/13 03:28:22;;;;;;;1.65;1.45;;;18.90;50.40;;;;;;5037338;28;20166;-86
2022/05/13 03:30:50;;;;;;;2.17;1.30;;;18.90;50.40;;;;;;5019702;28;20170;-86
2022/05/13 03:33:16;;;;;;;2.17;1.13;;;18.90;50.40;;;;;;5020805;28;20194;-86
2022/05/13 03:35:42;;;;;;;1.50;1.33;;;18.90;50.40;;;;;;5037412;28;20155;-86
2022/05/13 03:38:08;;;;;;;1.98;1.40;;;18.90;50.30;;;;;;5036948;28;20220;-85
2022/05/13 03:40:33;;;;;;;1.30;1.20;;;18.90;50.30;;;;;;5035572;28;20225;-85
2022/05/13 03:43:00;;;;;;;1.33;1.23;;;18.90;50.40;;;;;;5019148;28;20170;-85
2022/05/13 03:45:27;;;;;;;1.83;1.30;;;18.90;50.40;;;;;;5055504;28;20193;-85
2022/05/13 03:47:53;;;;;;;1.40;1.30;;;18.90;50.50;;;;;;5038858;28;20196;-85
2022/05/13 03:50:22;;;;;;;2.47;1.25;;;18.80;50.50;;;;;;5038886;28;20165;-85
2022/05/13 03:52:48;;;;;;;1.20;1.10;;;18.90;50.50;;;;;;5022087;28;20239;-85
2022/05/13 03:55:14;;;;;;;5.05;1.35;;;18.90;50.50;;;;;;5056807;28;20571;-85
2022/05/13 03:57:40;;;;;;;1.75;1.30;;;18.90;50.50;;;;;;5040632;28;20164;-85
2022/05/13 04:00:07;;;;;;;2.78;1.40;;;18.90;50.50;;;;;;5040146;28;20165;-85
2022/05/13 04:02:33;;;;;;;1.30;1.20;;;18.90;50.40;;;;;;5023743;28;20165;-86
2022/05/13 04:10:20;;;;;;;1.90;1.55;;;18.90;50.50;;;;;;5044270;28;20154;-86
2022/05/13 04:18:10;;;;;;;1.90;1.30;;;18.90;50.40;;;;;;5043802;28;20153;-85
2022/05/13 04:20:36;;;;;;;1.95;1.40;;;19.00;50.40;;;;;;5039998;28;20256;-86
2022/05/13 04:23:04;;;;;;;1.40;1.30;;;18.90;50.30;;;;;;5023988;28;20595;-85
2022/05/13 04:25:29;;;;;;;1.92;1.33;;;19.00;50.30;;;;;;5039801;28;20185;-86
2022/05/13 04:27:55;;;;;;;1.20;1.10;;;18.90;50.30;;;;;;5040082;28;20176;-86
2022/05/13 04:30:21;;;;;;;1.33;1.20;;;18.90;50.20;;;;;;5056303;28;20169;-86
2022/05/13 04:32:46;;;;;;;1.63;1.20;;;19.00;50.30;;;;;;5039785;28;20186;-86
2022/05/13 04:35:12;;;;;;;1.35;1.20;;;18.90;50.10;;;;;;5056374;28;20235;-86
2022/05/13 04:37:38;;;;;;;2.50;1.33;;;19.00;50.20;;;;;;5039728;28;20643;-86
2022/05/13 04:40:06;;;;;;;1.20;1.10;;;18.90;50.20;;;;;;5039432;28;20687;-86
2022/05/13 04:45:11;;;;;;;1.20;1.10;;;19.00;50.20;;;;;;5043715;28;20234;-86
2022/05/13 04:50:23;;;;;;;1.45;1.35;;;19.00;50.20;;;;;;5030120;28;20234;-86
2022/05/13 04:52:50;;;;;;;1.50;1.40;;;19.00;50.10;;;;;;5006181;28;20209;-86
2022/05/13 04:55:18;;;;;;;1.50;1.40;;;19.00;50.20;;;;;;4989743;28;20537;-86
2022/05/13 04:57:43;;;;;;;2.25;1.45;;;19.00;50.30;;;;;;5038938;28;20182;-86
2022/05/13 05:00:13;;;;;;;2.33;1.20;;;19.00;50.10;;;;;;5039469;28;20241;-86
2022/05/13 05:02:39;;;;;;;1.75;1.08;;;19.00;50.10;;;;;;5023608;28;20169;-86
2022/05/13 05:05:11;;;;;;;1.42;1.33;;;19.00;50.00;;;;;;5039290;28;20218;-86
2022/05/13 05:07:43;;;;;;;1.85;1.23;;;19.00;50.10;;;;;;5022390;28;20234;-86
2022/05/13 05:10:13;;;;;;;1.25;1.15;;;19.00;50.00;;;;;;4989632;28;20185;-86
2022/05/13 05:12:43;;;;;;;1.48;1.10;;;19.00;50.10;;;;;;5022472;28;20220;-86
2022/05/13 05:15:10;;;;;;;1.25;1.05;;;18.90;50.10;;;;;;5005486;28;20183;-86
2022/05/13 05:17:36;;;;;;;1.30;1.20;;;19.00;50.00;;;;;;5055523;28;20158;-86
2022/05/13 05:20:05;;;;;;;1.40;1.30;;;19.00;50.10;;;;;;5038830;28;20173;-86
2022/05/13 05:22:30;;;;;;;1.40;1.20;;;19.00;50.00;;;;;;5039533;28;20181;-86
2022/05/13 05:24:57;;;;;;;1.30;1.20;;;19.00;50.00;;;;;;5023171;28;20200;-86
2022/05/13 05:27:24;;;;;;;1.40;1.30;;;19.00;50.00;;;;;;5039089;28;20166;-86
2022/05/13 05:29:50;;;;;;;1.50;1.15;;;19.00;50.10;;;;;;5022367;28;20172;-86
2022/05/13 05:32:17;;;;;;;2.22;1.10;;;19.00;50.10;;;;;;5039416;28;20189;-86
2022/05/13 05:34:43;;;;;;;1.27;1.17;;;19.00;50.00;;;;;;5055663;28;20169;-86
2022/05/13 05:37:12;;;;;;;2.55;1.17;;;19.00;50.00;;;;;;5074129;28;20149;-85
2022/05/13 05:39:37;;;;;;;1.10;1.00;;;19.00;50.00;;;;;;5005662;28;20228;-86
2022/05/13 05:42:06;;;;;;;1.40;1.25;;;19.00;50.10;;;;;;5055696;28;20204;-86
2022/05/13 05:44:32;;;;;;;1.58;1.38;;;19.00;50.10;;;;;;5022136;28;20196;-86
2022/05/13 05:47:00;;;;;;;1.83;1.30;;;19.00;50.00;;;;;;5039726;28;20173;-85
2022/05/13 05:49:28;;;;;;;2.85;1.23;;;19.00;49.80;;;;;;5022316;28;20272;-86
2022/05/13 05:51:56;;;;;;;1.65;1.15;;;19.00;50.00;;;;;;5055973;28;20191;-87
2022/05/13 05:59:49;;;;;;;1.60;1.30;;;19.00;49.70;;;;;;5016962;28;20188;-86
2022/05/13 06:02:17;;;;;;;1.35;1.02;;;18.90;49.80;;;;;;5026086;28;20185;-86
2022/05/13 06:04:47;;;;;;;3.08;1.30;;;19.00;50.10;;;;;;5009961;28;20192;-86
2022/05/13 06:07:15;;;;;;;2.55;1.20;;;19.00;49.90;;;;;;5025982;28;20177;-87
2022/05/13 06:09:44;;;;;;;1.40;1.27;;;19.00;49.90;;;;;;5042804;28;20161;-86
2022/05/13 06:12:13;;;;;;;1.10;1.00;;;19.00;49.90;;;;;;5009094;28;20239;-86
2022/05/13 06:14:43;;;;;;;1.92;1.10;;;19.10;49.90;;;;;;5008889;28;20276;-86
2022/05/13 06:17:14;;;;;;;1.25;1.02;;;19.00;49.90;;;;;;5009356;28;20542;-87
2022/05/13 06:19:42;;;;;;;1.85;1.20;;;19.10;49.90;;;;;;5009051;28;20187;-87
2022/05/13 06:22:08;;;;;;;1.42;1.30;;;19.10;50.00;;;;;;5009213;28;20189;-87
2022/05/13 06:24:34;;;;;;;1.48;1.15;;;19.00;49.90;;;;;;5042556;28;20164;-87
2022/05/13 06:27:00;;;;;;;1.92;1.10;;;19.10;50.00;;;;;;5059466;28;20150;-87
2022/05/13 06:29:31;;;;;;;1.40;1.30;;;19.00;49.80;;;;;;5077069;28;20189;-87
2022/05/13 06:32:02;;;;;;;1.20;1.10;;;19.10;49.90;;;;;;5025430;28;20209;-87
2022/05/13 06:34:30;;;;;;;1.50;1.25;;;19.10;49.70;;;;;;5009113;28;20268;-87
2022/05/13 06:36:59;;;;;;;1.33;1.23;;;19.10;49.60;;;;;;5025117;28;20209;-86
2022/05/13 06:39:28;;;;;;;1.75;1.10;;;19.10;49.70;;;;;;5008396;28;20204;-87
2022/05/13 06:41:57;;;;;;;1.48;1.20;;;19.10;49.60;;;;;;5005059;28;20282;-86
2022/05/13 06:44:25;;;;;;;0.90;0.90;;;19.10;49.60;;;;;;5037680;28;20540;-86
2022/05/13 06:46:53;;;;;;;1.08;0.90;;;19.10;49.70;;;;;;5005139;28;20185;-86
2022/05/13 06:49:21;;;;;;;1.40;1.20;;;19.20;49.40;;;;;;5021270;28;20182;-86
2022/05/13 06:51:49;;;;;;;2.13;1.25;;;19.20;49.50;;;;;;4988808;28;20186;-86
2022/05/13 06:54:17;;;;;;;1.77;1.08;;;19.20;49.60;;;;;;5004565;28;20189;-86
2022/05/13 06:56:47;;;;;;;1.60;1.20;;;19.00;49.60;;;;;;5004820;28;20184;-86
2022/05/13 06:59:16;;;;;;;1.38;1.13;;;19.10;49.60;;;;;;5022435;28;20189;-86
2022/05/13 07:01:46;;;;;;;1.88;1.33;;;19.20;49.60;;;;;;5022514;28;20178;-86
2022/05/13 07:04:12;;;;;;;1.00;1.00;;;19.10;49.60;;;;;;5004626;28;20189;-86
2022/05/13 07:06:45;;;;;;;1.23;1.08;;;19.10;49.60;;;;;;5004911;28;20572;-86
2022/05/13 07:09:16;;;;;;;0.90;0.90;;;19.20;49.60;;;;;;5021405;28;20268;-85
2022/05/13 07:11:44;;;;;;;1.40;1.15;;;19.20;49.40;;;;;;5037826;28;20212;-85
2022/05/13 07:14:14;;;;;;;2.08;1.40;;;19.20;49.40;;;;;;5021618;28;20169;-85
2022/05/13 07:16:44;;;;;;;1.25;1.10;;;19.20;49.40;;;;;;5020301;28;20201;-86
2022/05/13 07:19:12;;;;;;;1.42;1.30;;;19.20;49.20;;;;;;5004270;28;20268;-86
2022/05/13 07:21:39;;;;;;;1.48;1.10;;;19.20;49.20;;;;;;5004881;28;20197;-86
2022/05/13 07:24:06;;;;;;;1.10;1.00;;;19.30;49.00;;;;;;5004620;28;20204;-86
2022/05/13 07:26:32;;;;;;;1.30;1.20;;;19.30;49.00;;;;;;5037782;28;20169;-86
2022/05/13 07:28:58;;;;;;;1.20;1.10;;;19.30;49.10;;;;;;5021099;28;20162;-86
2022/05/13 07:31:25;;;;;;;1.58;1.40;;;19.30;49.00;;;;;;5005423;28;20658;-86
2022/05/13 07:33:50;;;;;;;1.33;1.23;;;19.30;49.10;;;;;;5037643;28;20193;-85
2022/05/13 07:36:16;;;;;;;2.50;1.17;;;19.30;49.10;;;;;;5037424;28;20525;-86
2022/05/13 07:41:16;;;;;;;0.85;0.82;;;19.30;49.00;;;;;;5037755;28;20201;-86
2022/05/13 07:41:27;;;;;;;1.40;1.30;;;19.30;48.90;;;;;;5040378;28;20236;-87
2022/05/13 07:43:53;;;;;;;1.58;1.05;;;19.30;48.90;;;;;;5037355;28;20183;-86
2022/05/13 07:46:19;;;;;;;0.98;0.98;;;19.30;48.80;;;;;;5037210;28;20162;-86
2022/05/13 07:48:45;;;;;;;1.40;1.30;;;19.30;48.80;;;;;;5004447;28;20174;-86
2022/05/13 07:51:11;;;;;;;1.42;1.10;;;19.30;48.90;;;;;;5020806;28;20158;-86
2022/05/13 07:53:37;;;;;;;1.10;1.00;;;19.30;48.80;;;;;;5004292;28;20657;-86
2022/05/13 07:56:05;;;;;;;1.23;1.13;;;19.30;48.70;;;;;;5037241;28;20158;-87
2022/05/13 07:58:32;;;;;;;1.10;1.00;;;19.40;49.40;;;;;;5021108;28;20173;-86
2022/05/13 08:01:00;;;;;;;1.30;1.20;;;19.30;48.50;;;;;;5021978;28;20170;-87
2022/05/13 08:03:26;;;;;;;1.33;1.15;;;19.30;48.70;;;;;;5037449;28;20245;-86
2022/05/13 08:05:52;;;;;;;1.02;0.93;;;19.40;48.70;;;;;;5020556;28;20301;-86
2022/05/13 08:08:21;;;;;;;1.02;0.93;;;19.40;48.60;;;;;;5020352;28;20643;-86
2022/05/13 08:10:49;;;;;;;1.10;1.00;;;19.40;48.50;;;;;;5020868;28;20158;-86
2022/05/13 08:13:15;;;;;;;1.70;1.10;;;19.40;48.50;;;;;;5004973;28;20200;-86
2022/05/13 08:15:46;;;;;;;1.40;1.20;;;19.40;48.50;;;;;;5036939;28;20639;-86
2022/05/13 08:18:20;;;;;;;1.00;1.00;;;19.40;48.50;;;;;;5003423;28;20409;-87
2022/05/13 08:20:49;;;;;;;1.80;1.45;;;19.40;48.40;;;;;;5003030;28;20547;-87
2022/05/13 08:23:18;;;;;;;1.30;1.13;;;19.40;48.40;;;;;;5003229;28;20520;-86
2022/05/13 08:25:49;;;;;;;1.35;1.23;;;19.40;48.40;;;;;;4970812;28;20181;-87
2022/05/13 08:28:20;;;;;;;1.00;0.90;;;19.40;48.30;;;;;;5003215;28;20193;-86
2022/05/13 08:30:46;;;;;;;1.15;1.05;;;19.50;48.20;;;;;;5003128;28;20209;-88
2022/05/13 08:33:12;;;;;;;1.75;1.20;;;19.40;48.20;;;;;;5019855;28;20660;-87
2022/05/13 08:35:44;;;;;;;1.38;1.20;;;19.30;48.20;;;;;;5020291;28;20165;-86
2022/05/13 08:38:10;;;;;;;1.30;1.20;;;19.40;48.20;;;;;;4972324;28;20553;-85
2022/05/13 08:40:58;;;;;;;1.60;1.33;;;19.40;48.20;;;;;;5022144;28;20232;-86
2022/05/13 08:43:27;;;;;;;1.25;1.10;;;19.50;48.20;;;;;;5028404;28;20212;-86
2022/05/13 08:45:57;;;;;;;1.30;1.02;;;19.40;48.10;;;;;;5006812;28;20184;-87
2022/05/13 08:48:40;;;;;;;1.20;1.10;;;19.40;48.00;;;;;;5022763;28;20200;-86
2022/05/13 08:51:18;;;;;;;2.08;1.15;;;19.40;48.10;;;;;;5023583;28;20188;-85
2022/05/13 08:54:15;;;;;;;1.20;1.10;;;19.40;48.00;;;;;;4992351;28;20358;-86
2022/05/13 08:56:41;;;;;;;1.17;1.00;;;19.40;47.70;;;;;;5055906;28;20173;-85
2022/05/13 08:59:15;;;;;;;1.85;1.30;;;19.50;47.80;;;;;;5055661;28;20231;-85
2022/05/13 09:01:45;;;;;;;1.30;1.00;;;19.50;47.80;;;;;;4990795;28;20172;-85
2022/05/13 09:04:34;;;;;;;1.30;1.20;;;19.50;47.80;;;;;;5040345;28;20156;-85
2022/05/13 09:07:05;;;;;;;1.42;1.10;;;19.50;47.60;;;;;;5074141;28;20161;-85
2022/05/13 09:09:31;;;;;;;1.88;1.23;;;19.40;47.70;;;;;;4989946;28;20189;-84
2022/05/13 09:12:18;;;;;;;1.73;1.40;;;19.40;47.80;;;;;;5039198;28;20200;-85
2022/05/13 09:14:58;;;;;;;1.10;1.00;;;19.40;47.80;;;;;;5041654;28;20248;-85
2022/05/13 09:17:48;;;;;;;1.40;1.30;;;19.40;47.80;;;;;;5024192;28;20205;-86
2022/05/13 09:20:16;;;;;;;1.20;1.10;;;19.40;47.60;;;;;;5058512;28;20228;-85
2022/05/13 09:22:49;;;;;;;1.20;1.10;;;19.40;47.60;;;;;;5039355;28;20367;-86
2022/05/13 09:25:48;;;;;;;2.15;1.00;;;19.50;47.40;;;;;;5007432;28;20189;-85
2022/05/13 09:28:14;;;;;;;1.33;1.08;;;19.40;47.40;;;;;;5073274;28;20561;-85
2022/05/13 09:30:44;;;;;;;1.30;1.20;;;19.40;47.40;;;;;;5022356;28;20177;-85
2022/05/13 09:33:30;;;;;;;1.52;1.33;;;19.40;47.60;;;;;;5006414;28;20291;-85
2022/05/13 09:35:58;;;;;;;1.30;1.20;;;19.50;47.50;;;;;;5039067;28;20252;-86
2022/05/13 09:38:30;;;;;;;1.55;1.10;;;19.40;47.60;;;;;;5023253;28;20504;-85
2022/05/13 09:41:02;;;;;;;1.50;1.23;;;19.40;47.30;;;;;;5022831;28;20233;-86
2022/05/13 09:43:38;;;;;;;1.17;1.02;;;19.40;47.40;;;;;;5022980;28;20165;-85
2022/05/13 09:46:11;;;;;;;1.95;1.00;;;19.40;47.50;;;;;;5039143;28;20161;-85
2022/05/13 09:48:39;;;;;;;1.50;1.02;;;19.40;47.40;;;;;;5006362;28;20238;-86
2022/05/13 09:51:27;;;;;;;1.30;1.00;;;19.40;47.30;;;;;;5022920;28;20165;-86
2022/05/13 09:54:19;;;;;;;1.10;1.00;;;19.40;47.20;;;;;;5055357;28;20607;-84
2022/05/13 09:56:47;;;;;;;1.42;1.17;;;19.40;47.20;;;;;;5023900;28;20264;-85
2022/05/13 09:59:22;;;;;;;1.20;1.10;;;19.40;47.10;;;;;;5040464;28;20150;-85
2022/05/13 10:01:49;;;;;;;1.38;1.27;;;19.40;47.00;;;;;;5024142;28;20186;-85
2022/05/13 10:04:24;;;;;;;1.50;1.40;;;19.50;47.00;;;;;;5039559;28;20142;-87
2022/05/13 10:06:49;;;;;;;2.67;1.13;;;19.40;47.10;;;;;;5039823;28;20165;-86
2022/05/13 10:14:53;;;;;;;1.38;1.02;;;19.50;46.90;;;;;;5043768;28;20227;-88
2022/05/13 10:17:22;;;;;;;0.93;0.93;;;19.50;47.00;;;;;;5040779;28;20153;-85
2022/05/13 10:19:59;;;;;;;1.33;1.17;;;19.40;46.90;;;;;;5038775;28;20154;-87
2022/05/13 10:22:38;;;;;;;1.25;1.10;;;19.40;46.70;;;;;;5023109;28;20520;-86
2022/05/13 10:25:11;;;;;;;1.92;1.00;;;19.40;46.70;;;;;;5022652;28;20184;-86
2022/05/13 10:27:40;;;;;;;1.20;1.08;;;19.40;46.80;;;;;;5007909;28;20517;-85
2022/05/13 10:30:10;;;;;;;1.35;1.10;;;19.50;46.70;;;;;;5058193;28;20193;-86
2022/05/13 10:32:52;;;;;;;1.48;1.10;;;19.50;46.60;;;;;;5024699;28;20295;-85
2022/05/13 10:35:21;;;;;;;1.77;1.30;;;19.60;46.40;;;;;;5026052;28;20248;-86
2022/05/13 10:37:59;;;;;;;1.13;1.00;;;19.60;46.20;;;;;;5040405;28;20165;-86
2022/05/13 10:40:24;;;;;;;1.23;1.05;;;19.60;45.80;;;;;;4990952;28;20215;-85
2022/05/13 10:43:08;;;;;;;1.63;1.05;;;19.60;45.90;;;;;;5000409;28;20238;-86
2022/05/13 10:45:35;;;;;;;1.88;1.23;;;19.60;45.60;;;;;;5000633;28;20225;-87
2022/05/13 10:48:15;;;;;;;1.13;1.02;;;19.60;45.30;;;;;;5015008;28;20179;-86
2022/05/13 10:51:08;;;;;;;1.65;1.30;;;19.60;45.60;;;;;;4982114;28;20677;-86
2022/05/13 10:53:58;;;;;;;1.65;1.20;;;19.60;45.90;;;;;;4982233;28;20214;-85
2022/05/13 10:56:30;;;;;;;1.30;1.20;;;19.60;45.70;;;;;;4983982;28;20160;-86
2022/05/13 10:59:28;;;;;;;1.38;1.27;;;19.60;46.00;;;;;;4998388;28;20156;-87
2022/05/13 11:02:18;;;;;;;1.30;1.20;;;19.60;45.50;;;;;;5015544;28;20175;-86
2022/05/13 11:04:49;;;;;;;1.45;1.35;;;19.70;46.00;;;;;;5015518;28;20250;-85
2022/05/13 11:07:46;;;;;;;3.75;1.13;;;19.60;45.50;;;;;;4982884;28;20179;-87
2022/05/13 11:10:33;;;;;;;2.65;1.10;;;19.70;45.20;;;;;;4987361;28;20274;-86
2022/05/13 11:13:18;;;;;;;1.33;1.23;;;19.60;44.90;;;;;;5024827;28;20212;-87
2022/05/13 11:15:55;;;;;;;1.30;1.20;;;19.70;44.80;;;;;;5012747;28;20181;-86
2022/05/13 11:18:46;;;;;;;1.45;1.05;;;19.60;45.50;;;;;;5026761;28;20177;-86
2022/05/13 11:21:41;;;;;;;1.45;1.33;;;19.60;45.40;;;;;;5011928;28;20312;-85
2022/05/13 11:27:58;;;;;;;1.15;1.05;;;19.60;44.60;;;;;;5061045;28;20149;-86
2022/05/13 11:30:35;;;;;;;2.28;1.33;;;19.60;44.90;;;;;;5030058;28;20172;-86
2022/05/13 11:33:11;;;;;;;1.20;1.10;;;19.60;44.60;;;;;;5011504;28;20275;-87
2022/05/13 11:35:46;;;;;;;1.60;1.30;;;19.60;44.60;;;;;;4996893;28;20177;-87
2022/05/13 11:38:22;;;;;;;1.38;1.25;;;19.60;44.60;;;;;;5010909;28;20177;-86
2022/05/13 11:40:53;;;;;;;1.42;1.05;;;19.50;44.90;;;;;;5006327;28;20217;-86
2022/05/13 11:43:58;;;;;;;1.33;1.13;;;19.50;44.50;;;;;;5038660;28;20669;-86
2022/05/13 11:46:45;;;;;;;1.65;1.13;;;19.50;44.40;;;;;;5036550;28;20205;-87
2022/05/13 11:49:25;;;;;;;1.15;1.08;;;19.60;44.80;;;;;;5020097;28;20273;-87
2022/05/13 11:51:52;;;;;;;2.10;1.20;;;19.60;44.40;;;;;;5036982;28;20572;-87
2022/05/13 11:54:25;;;;;;;1.48;1.10;;;19.50;44.60;;;;;;5054778;28;20186;-86
2022/05/13 11:57:23;;;;;;;2.20;1.00;;;19.60;44.40;;;;;;5054317;28;20162;-85
2022/05/13 11:59:54;;;;;;;1.30;1.20;;;19.60;44.20;;;;;;5053621;28;20154;-86
2022/05/13 12:02:50;;;;;;;0.95;0.95;;;19.50;44.20;;;;;;5037649;28;20194;-86
2022/05/13 12:05:29;;;;;;;1.38;1.27;;;19.50;44.00;;;;;;5054847;28;20231;-85
2022/05/13 12:08:07;;;;;;;0.95;0.90;;;19.50;43.80;;;;;;5037721;28;20162;-86
2022/05/13 12:10:40;;;;;;;1.50;1.13;;;19.50;43.60;;;;;;5054716;28;20161;-86
2022/05/13 12:13:29;;;;;;;1.20;1.02;;;19.60;43.80;;;;;;5053912;28;20644;-86
2022/05/13 12:16:12;;;;;;;1.20;1.13;;;19.60;43.40;;;;;;5037301;28;20633;-86
2022/05/13 12:18:53;;;;;;;1.33;1.13;;;19.60;43.60;;;;;;5032974;28;20332;-86
2022/05/13 12:21:34;;;;;;;1.33;1.17;;;19.60;43.30;;;;;;5016864;28;20159;-85
2022/05/13 12:24:20;;;;;;;1.33;1.23;;;19.60;43.80;;;;;;5016466;28;20181;-85
2022/05/13 12:27:07;;;;;;;1.52;1.30;;;19.60;43.70;;;;;;4983995;28;20182;-86
2022/05/13 12:29:44;;;;;;;4.50;1.20;;;19.60;44.00;;;;;;5015795;28;20174;-86
2022/05/13 12:32:49;;;;;;;1.23;1.13;;;19.60;43.90;;;;;;5015705;28;20643;-86
2022/05/13 12:38:32;;;;;;;2.25;1.15;;;19.60;43.70;;;;;;5012800;28;20189;-87
2022/05/13 12:41:10;;;;;;;1.95;1.30;;;19.60;43.50;;;;;;4985014;28;20259;-85
2022/05/13 12:43:46;;;;;;;2.05;1.30;;;19.60;43.30;;;;;;5018818;28;20182;-85
2022/05/13 12:46:16;;;;;;;1.60;1.30;;;19.60;43.90;;;;;;5016727;28;20162;-86
2022/05/13 12:49:02;;;;;;;1.58;1.10;;;19.60;43.50;;;;;;5019450;28;20283;-86
2022/05/13 12:51:34;;;;;;;1.10;1.00;;;19.70;43.50;;;;;;5054589;28;20154;-86
2022/05/13 12:54:00;;;;;;;1.23;1.00;;;19.60;43.40;;;;;;5053989;28;20189;-85
2022/05/13 12:56:33;;;;;;;1.33;1.23;;;19.70;43.30;;;;;;5035713;28;20177;-85
2022/05/13 12:59:01;;;;;;;1.40;1.20;;;19.70;43.40;;;;;;5037117;28;20162;-85
2022/05/13 13:01:27;;;;;;;1.63;1.10;;;19.70;43.50;;;;;;5037629;28;20170;-85
2022/05/13 13:03:53;;;;;;;1.25;1.10;;;19.70;43.30;;;;;;5020693;28;20196;-85
2022/05/13 13:06:20;;;;;;;2.22;1.20;;;19.70;43.30;;;;;;5021562;28;20557;-85
2022/05/13 13:08:48;;;;;;;1.17;0.90;;;19.70;43.10;;;;;;5019213;28;20166;-84
2022/05/13 13:11:33;;;;;;;2.00;1.17;;;19.70;42.80;;;;;;5035480;28;20176;-85
2022/05/13 13:14:18;;;;;;;2.90;1.02;;;19.60;43.00;;;;;;5035618;28;20182;-85
2022/05/13 13:16:55;;;;;;;1.40;1.00;;;19.60;42.80;;;;;;5052643;28;20157;-85
2022/05/13 13:19:24;;;;;;;1.38;1.27;;;19.60;42.60;;;;;;5035670;28;20269;-84
2022/05/13 13:22:09;;;;;;;1.30;1.20;;;19.60;42.60;;;;;;5019253;28;20614;-86
2022/05/13 13:24:37;;;;;;;3.72;1.00;;;19.60;42.60;;;;;;5036672;28;20169;-84
2022/05/13 13:27:04;;;;;;;1.23;1.13;;;19.60;42.80;;;;;;5036364;28;20166;-84
2022/05/13 13:29:32;;;;;;;1.30;1.10;;;19.60;42.50;;;;;;5055115;28;20186;-85
2022/05/13 13:31:59;;;;;;;1.23;0.80;;;19.60;43.00;;;;;;5052786;28;20166;-85
2022/05/13 13:34:32;;;;;;;2.35;1.30;;;19.50;43.00;;;;;;5039507;28;20153;-85
2022/05/13 13:36:58;;;;;;;2.35;1.15;;;19.60;43.00;;;;;;5028845;28;20172;-86
2022/05/13 13:39:30;;;;;;;1.30;1.10;;;19.60;43.20;;;;;;5072607;28;20142;-85
2022/05/13 13:42:00;;;;;;;1.30;1.20;;;19.60;42.80;;;;;;5059608;28;20228;-86
2022/05/13 13:44:27;;;;;;;1.75;1.00;;;19.60;42.40;;;;;;5059967;28;20586;-86